LIPZEBCI

Guest
Details From LIPZ - Venezia Tessera
To EBCI - Brussels South - Charleroi
Flight Number -
Tags Generated
Created
Modified
Stats Distance 435 nm / 806 km
Max Altitude 0 ft / 0 m
Waypoints 4
Social Downloads 2
Likes 0
Share VATSIM

Download

Looking for another format? Having issues loading an existing format? Contact us
Advertisement - Login to hide

Notes

Generated

Route

LIPZ ROMIR BFS99 EBCI

ID Type Via Altitude Latitude Longitude Leg Dist Tot Dist Heading (true) Name
O LIPZ APT - 0 ft / 0 m 45.49516˚ 12.33556˚ - 0 nm - -
ROMIR FIX - 0 ft / 0 m 47.71306˚ 9.10778˚ 188 nm 188 nm 316° / 314° -
BFS99 FIX - 0 ft / 0 m 50.19800˚ 4.90377˚ 223 nm 411 nm 314° / 310° -
O EBCI APT - 0 ft / 0 m 50.45539˚ 4.43664˚ 23 nm 434 nm 311° / 311° -

Altitude Profile

Advertisement - Login to hide

Weather


0- 5 10 15 20 25 30 35+ Temperature / ° C

Clouds and Precipitation
Forecast for 2017-12-15 18:00 UTC. Updated an hour ago

Ground ~20,000 ft ~40,000 ft Winds

LIPZ

Details ICAO LIPZ (VCE)
Name Venezia Tessera
Region Italy
Timezone Europe/Rome (UTC+1.0)
Stats Elevation 7 ft / 2 m (AMSL)
Location 45.504791° 12.349691°
Runways 2
Magnetic Variation 3.180° E

METAR

LIPZ 151550Z 30002KT 7000 FEW070 08/07 Q0996 NOSIG

Decode

TAF

TAF LIPZ 151100Z 1512/1618 VRB05KT 9999 SCT060 TEMPO 1515/1523 1500 BCFG BECMG 1523/1601 01010KT

Decode

Departure Runways

ID Width Length Bearing (true) Bearing (mag) Surface Threshold Offset Overrun Length
04L 148 ft / 45 m 9,112 ft / 2,777 m 42.01° 38.83° Asphalt 312 ft / 95 m 0 ft / 0 m
04R 148 ft / 45 m 10,834 ft / 3,302 m 41.99° 38.81° Asphalt 0 ft / 0 m 0 ft / 0 m
22L 148 ft / 45 m 10,834 ft / 3,302 m 222.01° 218.83° Asphalt 0 ft / 0 m 0 ft / 0 m
22R 148 ft / 45 m 9,112 ft / 2,777 m 222.02° 218.84° Asphalt 0 ft / 0 m 0 ft / 0 m

EBCI

Details ICAO EBCI (CRL)
Name Brussels South - Charleroi
Region Belgium
Timezone Europe/Brussels (UTC+1.0)
Stats Elevation 614 ft / 187 m (AMSL)
Location 50.459947° 4.453125°
Runways 1
Magnetic Variation 1.134° E

METAR

EBCI 151550Z 17003KT 140V200 7000 -RA BKN008 BKN018 01/01 Q0996 TEMPO 4000 -SNRA BKN004

Decode

TAF

TAF EBCI 151110Z 1512/1618 VRB04KT 7000 SCT006 SCT012CB TEMPO 1512/1516 2000 SHRAGS BKN004 BECMG 1516/1518 3000 BR BKN006 TEMPO 1518/1608 1200 BKN003 PROB30 TEMPO 1520/1606 0600 FZFG BECMG 1608/1610 7000 NSW TEMPO 1608/1618 2500 SHRASN BKN004

Decode

Destination Runways

ID Width Length Bearing (true) Bearing (mag) Surface Threshold Offset Overrun Length
07 148 ft / 45 m 8,374 ft / 2,552 m 65.53° 64.40° Asphalt 1,476 ft / 450 m 0 ft / 0 m
25 148 ft / 45 m 8,374 ft / 2,552 m 245.55° 244.42° Asphalt 0 ft / 0 m 0 ft / 0 m

Approach Navaids

Runway Type Ident Frequency Range Bearing (true) Bearing (mag) Slope Elevation
25 Localiser IGC 110.90 MHz 18 nm / 33 km 245.54° 244.41° - 614 ft / 187 m (AMSL)
25 Glidescope IGC 110.90 MHz 10 nm / 19 km 245.54° 244.41° 3.00° 614 ft / 187 m (AMSL)